Time;durP1;ratioP1;P1;durP2;ratioP2;P2;SDS_P1;SDS_P2;PMS_P1;PMS_P2;Temp;Humidity;BMP_temperature;BMP_pressure;BME280_temperature;BME280_humidity;BME280_pressure;Samples;Min_cycle;Max_cycle;Signal;HPM_P1;HPM_P2
2022/12/27 00:00:56;;;;;;;;;;;5.50;91.50;;;;;;5036433;28;19928;-76
2022/12/27 00:03:21;;;;;;;;;;;5.50;91.50;;;;;;5036762;28;20609;-76
2022/12/27 00:05:47;;;;;;;;;;;5.50;91.50;;;;;;5038741;28;19975;-77
2022/12/27 00:08:13;;;;;;;;;;;5.40;91.50;;;;;;5035481;28;19921;-76
2022/12/27 00:10:38;;;;;;;;;;;5.40;91.60;;;;;;5035162;28;20007;-77
2022/12/27 00:13:03;;;;;;;;;;;5.30;91.60;;;;;;5036419;28;19921;-77
2022/12/27 00:15:29;;;;;;;;;;;5.30;91.60;;;;;;5036613;28;20444;-76
2022/12/27 00:17:54;;;;;;;;;;;5.30;91.60;;;;;;5034733;28;19932;-75
2022/12/27 00:20:20;;;;;;;;;;;5.30;91.60;;;;;;5050853;28;19921;-77
2022/12/27 00:22:45;;;;;;;;;;;5.20;91.50;;;;;;5034890;28;20398;-76
2022/12/27 00:25:11;;;;;;;;;;;5.20;91.60;;;;;;5035440;28;19925;-76
2022/12/27 00:27:36;;;;;;;;;;;5.10;91.50;;;;;;5036544;28;19946;-77
2022/12/27 00:30:02;;;;;;;;;;;5.10;91.50;;;;;;5035618;28;19950;-77
2022/12/27 00:32:27;;;;;;;;;;;5.00;91.50;;;;;;5020606;28;19921;-77
2022/12/27 00:34:53;;;;;;;;;;;5.00;91.60;;;;;;5036172;28;21412;-77
2022/12/27 00:37:18;;;;;;;;;;;4.90;91.50;;;;;;5035094;28;19921;-77
2022/12/27 00:39:44;;;;;;;;;;;4.80;91.50;;;;;;5034579;28;20008;-76
2022/12/27 00:42:09;;;;;;;;;;;4.80;91.60;;;;;;5028842;28;19920;-76
2022/12/27 00:44:35;;;;;;;;;;;4.80;91.90;;;;;;5038680;28;20387;-77
2022/12/27 00:47:00;;;;;;;;;;;4.80;91.60;;;;;;5033515;28;19951;-76
2022/12/27 00:49:26;;;;;;;;;;;4.70;91.60;;;;;;5019006;28;20035;-76
2022/12/27 00:51:51;;;;;;;;;;;4.70;91.60;;;;;;5033845;28;19925;-76
2022/12/27 00:54:17;;;;;;;;;;;4.60;91.60;;;;;;5037250;28;19921;-74
2022/12/27 00:56:42;;;;;;;;;;;4.60;91.60;;;;;;5036314;28;19932;-77
2022/12/27 00:59:09;;;;;;;;;;;4.50;91.60;;;;;;5034148;28;20534;-77
2022/12/27 01:01:34;;;;;;;;;;;4.50;91.60;;;;;;5034586;28;19928;-76
2022/12/27 01:04:00;;;;;;;;;;;4.50;91.70;;;;;;5035288;28;19952;-75
2022/12/27 01:06:27;;;;;;;;;;;4.50;91.70;;;;;;5034650;28;19921;-76
2022/12/27 01:08:53;;;;;;;;;;;4.40;91.70;;;;;;5034180;28;19924;-76
2022/12/27 01:11:18;;;;;;;;;;;4.40;91.70;;;;;;5033690;28;19975;-76
2022/12/27 01:13:44;;;;;;;;;;;4.40;91.70;;;;;;5018107;28;19927;-75
2022/12/27 01:16:20;;;;;;;;;;;4.30;91.60;;;;;;5036254;28;19995;-75
2022/12/27 01:18:45;;;;;;;;;;;4.30;91.70;;;;;;5035350;28;19952;-76
2022/12/27 01:21:11;;;;;;;;;;;4.30;91.70;;;;;;5018956;28;19920;-75
2022/12/27 01:23:37;;;;;;;;;;;4.20;91.70;;;;;;5016804;28;19928;-76
2022/12/27 01:26:03;;;;;;;;;;;4.20;91.60;;;;;;5051330;28;19928;-76
2022/12/27 01:28:29;;;;;;;;;;;4.10;91.60;;;;;;5031983;28;19939;-76
2022/12/27 01:30:54;;;;;;;;;;;4.10;91.70;;;;;;5050579;28;19921;-76
2022/12/27 01:33:20;;;;;;;;;;;4.10;91.70;;;;;;5052077;28;24070;-76
2022/12/27 01:35:45;;;;;;;;;;;4.00;91.70;;;;;;5036533;28;19921;-76
2022/12/27 01:38:11;;;;;;;;;;;4.00;91.80;;;;;;5037318;28;19917;-75
2022/12/27 01:40:36;;;;;;;;;;;3.90;91.70;;;;;;5036636;28;19964;-76
2022/12/27 01:43:02;;;;;;;;;;;4.00;91.80;;;;;;5022238;28;20323;-73
2022/12/27 01:45:28;;;;;;;;;;;3.90;91.70;;;;;;5054338;28;19920;-76
2022/12/27 01:48:09;;;;;;;;;;;3.90;91.70;;;;;;5035469;28;19956;-76
2022/12/27 01:50:51;;;;;;;;;;;3.90;91.80;;;;;;5049479;28;19921;-76
2022/12/27 01:53:20;;;;;;;;;;;3.90;91.80;;;;;;5036042;28;19928;-76
2022/12/27 01:55:55;;;;;;;;;;;3.80;91.80;;;;;;5039400;28;19925;-76
2022/12/27 01:58:30;;;;;;;;;;;3.80;91.80;;;;;;5017754;28;19923;-76
2022/12/27 02:00:55;;;;;;;;;;;3.80;91.80;;;;;;5037197;28;20019;-75
2022/12/27 02:03:25;;;;;;;;;;;3.80;91.80;;;;;;5037963;28;19996;-76
2022/12/27 02:05:51;;;;;;;;;;;3.80;91.80;;;;;;5037551;28;20335;-76
2022/12/27 02:08:19;;;;;;;;;;;3.80;91.80;;;;;;5018271;28;20386;-75
2022/12/27 02:10:44;;;;;;;;;;;3.80;91.80;;;;;;5037098;28;20426;-76
2022/12/27 02:13:10;;;;;;;;;;;3.70;91.80;;;;;;5037079;28;19982;-74
2022/12/27 02:15:36;;;;;;;;;;;3.70;91.90;;;;;;5037673;28;20457;-77
2022/12/27 02:18:01;;;;;;;;;;;3.70;91.90;;;;;;5037989;28;19932;-76
2022/12/27 02:20:31;;;;;;;;;;;3.70;91.90;;;;;;5037223;28;19924;-76
2022/12/27 02:25:59;;;;;;;;;;;3.70;91.90;;;;;;5038404;28;20637;-76
2022/12/27 02:28:43;;;;;;;;;;;3.70;91.90;;;;;;5037146;28;19925;-76
2022/12/27 02:31:19;;;;;;;;;;;3.70;91.90;;;;;;5035151;28;20394;-74
2022/12/27 02:33:46;;;;;;;;;;;3.70;91.90;;;;;;5038434;28;20027;-75
2022/12/27 02:36:13;;;;;;;;;;;3.70;91.90;;;;;;5035806;28;20629;-75
2022/12/27 02:38:40;;;;;;;;;;;3.70;91.90;;;;;;5036188;28;20008;-75
2022/12/27 02:55:29;;;;;;;;;;;3.70;91.90;;;;;;5036191;28;20452;-74
2022/12/27 02:58:03;;;;;;;;;;;3.70;91.90;;;;;;5036287;28;19928;-76
2022/12/27 03:03:37;;;;;;;;;;;3.70;91.90;;;;;;5034387;28;20339;-76
2022/12/27 03:15:53;;;;;;;;;;;3.60;91.90;;;;;;5034500;28;19974;-75
2022/12/27 03:17:29;;;;;;;;;;;3.60;91.80;;;;;;5036662;28;19935;-76
2022/12/27 03:25:27;;;;;;;;;;;3.50;91.80;;;;;;5038872;28;20386;-76
2022/12/27 03:33:39;;;;;;;;;;;3.50;91.90;;;;;;4963250;28;20334;-76
2022/12/27 03:39:10;;;;;;;;;;;3.50;91.90;;;;;;5036642;28;19982;-76
2022/12/27 03:44:24;;;;;;;;;;;3.50;91.90;;;;;;5036229;28;19927;-76
2022/12/27 03:46:51;;;;;;;;;;;3.50;91.90;;;;;;5036058;28;19925;-75
2022/12/27 03:49:22;;;;;;;;;;;3.50;91.90;;;;;;5018141;28;19920;-74
2022/12/27 03:51:56;;;;;;;;;;;3.50;91.90;;;;;;5033750;28;19948;-76
2022/12/27 03:54:25;;;;;;;;;;;3.50;91.90;;;;;;5034999;28;19999;-76
2022/12/27 03:56:57;;;;;;;;;;;3.50;92.00;;;;;;5034071;28;20460;-76
2022/12/27 03:59:22;;;;;;;;;;;3.50;91.90;;;;;;5031950;28;19928;-76
2022/12/27 04:01:48;;;;;;;;;;;3.50;91.90;;;;;;5031020;28;20588;-76
2022/12/27 04:04:13;;;;;;;;;;;3.50;91.90;;;;;;5035719;28;19925;-76
2022/12/27 04:06:39;;;;;;;;;;;3.50;91.90;;;;;;5035451;28;20371;-76
2022/12/27 04:36:26;;;;;;;;;;;3.50;91.90;;;;;;5036082;28;19998;-76
2022/12/27 04:38:52;;;;;;;;;;;3.40;91.90;;;;;;5033941;28;20407;-75
2022/12/27 04:54:59;;;;;;;;;;;3.30;91.80;;;;;;5033283;28;20111;-76
2022/12/27 04:57:25;;;;;;;;;;;3.30;91.90;;;;;;5047973;28;19921;-76
2022/12/27 05:02:34;;;;;;;;;;;3.20;91.80;;;;;;5034411;28;20608;-76
2022/12/27 05:05:00;;;;;;;;;;;3.30;91.90;;;;;;5037105;28;19925;-76
2022/12/27 05:15:38;;;;;;;;;;;3.10;91.90;;;;;;5037622;28;20326;-75
2022/12/27 05:18:04;;;;;;;;;;;3.10;91.90;;;;;;5038763;28;20548;-76
2022/12/27 05:20:29;;;;;;;;;;;3.10;91.90;;;;;;5022112;28;19924;-74
2022/12/27 05:25:42;;;;;;;;;;;3.00;91.80;;;;;;5052698;28;20294;-76
2022/12/27 05:28:08;;;;;;;;;;;3.00;91.80;;;;;;5040152;28;19936;-75
2022/12/27 05:30:34;;;;;;;;;;;3.00;91.90;;;;;;5040792;28;20018;-75
2022/12/27 05:33:00;;;;;;;;;;;3.00;91.90;;;;;;5040294;28;20564;-75
2022/12/27 05:35:25;;;;;;;;;;;2.90;91.90;;;;;;5036517;28;19932;-74
2022/12/27 05:37:52;;;;;;;;;;;2.90;91.90;;;;;;5038303;28;19921;-75
2022/12/27 05:40:17;;;;;;;;;;;2.90;91.90;;;;;;5018869;28;20390;-76
2022/12/27 05:42:42;;;;;;;;;;;2.90;91.90;;;;;;5039549;28;19927;-75
2022/12/27 05:45:08;;;;;;;;;;;2.90;91.90;;;;;;5042154;28;20295;-76
2022/12/27 05:47:33;;;;;;;;;;;2.90;91.90;;;;;;5037831;28;20019;-75
2022/12/27 05:49:59;;;;;;;;;;;2.90;91.90;;;;;;5039702;28;19921;-76
2022/12/27 05:52:24;;;;;;;;;;;2.90;91.90;;;;;;5036388;28;19928;-76
2022/12/27 05:54:50;;;;;;;;;;;2.90;91.90;;;;;;5037636;28;20592;-76
2022/12/27 05:57:15;;;;;;;;;;;2.80;91.90;;;;;;5036614;28;19925;-74
2022/12/27 05:59:41;;;;;;;;;;;2.80;91.90;;;;;;5039436;28;19921;-75
2022/12/27 06:02:06;;;;;;;;;;;2.80;91.90;;;;;;5040036;28;19974;-76
2022/12/27 06:04:31;;;;;;;;;;;2.80;92.00;;;;;;5036494;28;19956;-74
2022/12/27 06:06:58;;;;;;;;;;;2.80;91.90;;;;;;5038439;28;19921;-73
2022/12/27 06:09:23;;;;;;;;;;;2.80;91.90;;;;;;5038001;28;19925;-76
2022/12/27 06:11:49;;;;;;;;;;;2.80;92.00;;;;;;5038196;28;21365;-75
2022/12/27 06:14:14;;;;;;;;;;;2.80;92.00;;;;;;5053440;28;19921;-76
2022/12/27 06:16:40;;;;;;;;;;;2.80;92.00;;;;;;5035805;28;19981;-76
2022/12/27 06:19:05;;;;;;;;;;;2.80;92.00;;;;;;5035468;28;19948;-76
2022/12/27 06:21:31;;;;;;;;;;;2.80;92.00;;;;;;5036271;28;20669;-74
2022/12/27 06:23:56;;;;;;;;;;;2.80;92.00;;;;;;5037414;28;19925;-74
2022/12/27 06:26:22;;;;;;;;;;;2.80;92.00;;;;;;5019982;28;20012;-76
2022/12/27 06:28:48;;;;;;;;;;;2.80;92.00;;;;;;5037950;28;19983;-76
2022/12/27 06:31:14;;;;;;;;;;;2.80;92.00;;;;;;5040249;28;19925;-76
2022/12/27 06:33:39;;;;;;;;;;;2.80;92.00;;;;;;5035675;28;20337;-76
2022/12/27 06:36:05;;;;;;;;;;;2.80;92.00;;;;;;5054548;28;20430;-78
2022/12/27 06:38:31;;;;;;;;;;;2.80;92.00;;;;;;5034769;28;20108;-75
2022/12/27 06:41:01;;;;;;;;;;;2.70;91.90;;;;;;5037429;28;20457;-75
2022/12/27 06:43:27;;;;;;;;;;;2.70;91.90;;;;;;5035552;28;19917;-76
2022/12/27 06:45:56;;;;;;;;;;;2.70;91.90;;;;;;5035289;28;19947;-76
2022/12/27 06:48:21;;;;;;;;;;;2.70;91.90;;;;;;5037096;28;19986;-75
2022/12/27 06:50:47;;;;;;;;;;;2.70;91.90;;;;;;5036797;28;20039;-76
2022/12/27 06:53:13;;;;;;;;;;;2.70;92.00;;;;;;5037834;28;19921;-75
2022/12/27 06:55:38;;;;;;;;;;;2.60;91.90;;;;;;5036071;28;23445;-76
2022/12/27 06:58:04;;;;;;;;;;;2.60;91.90;;;;;;5036688;28;19928;-76
2022/12/27 07:00:29;;;;;;;;;;;2.60;92.00;;;;;;5036262;28;20684;-74
2022/12/27 07:02:55;;;;;;;;;;;2.60;91.90;;;;;;5034511;28;19928;-76
2022/12/27 07:05:20;;;;;;;;;;;2.60;92.00;;;;;;5033431;28;20284;-70
2022/12/27 07:07:45;;;;;;;;;;;2.60;91.90;;;;;;5037471;28;19920;-76
2022/12/27 07:10:11;;;;;;;;;;;2.50;91.90;;;;;;5033710;28;19928;-76
2022/12/27 07:12:36;;;;;;;;;;;2.50;91.90;;;;;;5037096;28;19917;-76
2022/12/27 07:15:03;;;;;;;;;;;2.50;91.90;;;;;;5036796;28;19920;-76
2022/12/27 07:17:28;;;;;;;;;;;2.40;91.90;;;;;;5049521;28;19917;-76
2022/12/27 07:19:54;;;;;;;;;;;2.50;92.00;;;;;;5035893;28;19932;-76
2022/12/27 07:22:19;;;;;;;;;;;2.40;91.90;;;;;;5035757;28;19917;-76
2022/12/27 07:24:44;;;;;;;;;;;2.40;92.00;;;;;;5034491;28;20386;-74
2022/12/27 07:27:10;;;;;;;;;;;2.40;91.90;;;;;;5036766;28;19935;-75
2022/12/27 07:29:35;;;;;;;;;;;2.40;92.00;;;;;;5036208;28;20632;-76
2022/12/27 07:32:01;;;;;;;;;;;2.30;92.00;;;;;;5037676;28;20411;-76
2022/12/27 07:34:26;;;;;;;;;;;2.30;92.00;;;;;;5034585;28;19925;-76
2022/12/27 07:36:52;;;;;;;;;;;2.30;92.00;;;;;;5035940;28;19927;-76
2022/12/27 07:39:17;;;;;;;;;;;2.30;92.00;;;;;;5034249;28;19917;-74
2022/12/27 07:41:43;;;;;;;;;;;2.30;92.00;;;;;;5036129;28;19920;-76
2022/12/27 07:44:08;;;;;;;;;;;2.30;92.00;;;;;;5036335;28;19925;-75
2022/12/27 07:46:34;;;;;;;;;;;2.30;92.10;;;;;;5048997;28;19959;-75
2022/12/27 07:48:59;;;;;;;;;;;2.30;92.00;;;;;;5035529;28;19921;-75
2022/12/27 07:51:25;;;;;;;;;;;2.30;92.10;;;;;;5036219;28;20507;-75
2022/12/27 07:53:50;;;;;;;;;;;2.30;92.10;;;;;;5035315;28;19963;-75
2022/12/27 07:56:17;;;;;;;;;;;2.30;92.10;;;;;;5031187;28;19932;-76
2022/12/27 07:58:43;;;;;;;;;;;2.30;92.10;;;;;;5032176;28;19925;-76
2022/12/27 08:01:09;;;;;;;;;;;2.40;92.10;;;;;;5035517;28;20015;-73
2022/12/27 08:03:34;;;;;;;;;;;2.40;92.10;;;;;;5033562;28;20464;-75
2022/12/27 08:06:00;;;;;;;;;;;2.40;92.10;;;;;;5019972;28;20007;-76
2022/12/27 08:08:26;;;;;;;;;;;2.50;92.20;;;;;;5036988;28;20587;-76
2022/12/27 08:10:52;;;;;;;;;;;2.60;92.20;;;;;;5036940;28;20398;-75
2022/12/27 08:13:17;;;;;;;;;;;2.60;92.10;;;;;;5049856;28;19920;-76
2022/12/27 08:15:45;;;;;;;;;;;2.70;92.20;;;;;;5049830;28;20131;-76
2022/12/27 08:18:10;;;;;;;;;;;2.70;92.10;;;;;;5017485;28;19925;-76
2022/12/27 08:20:36;;;;;;;;;;;2.80;92.20;;;;;;5032877;28;19986;-77
2022/12/27 08:23:01;;;;;;;;;;;2.90;92.20;;;;;;5034332;28;19928;-76
2022/12/27 08:25:27;;;;;;;;;;;2.90;92.10;;;;;;5033900;28;20032;-75
2022/12/27 08:28:00;;;;;;;;;;;2.90;92.10;;;;;;5036366;28;20267;-76
2022/12/27 08:30:26;;;;;;;;;;;3.00;92.20;;;;;;5034159;28;19933;-76
2022/12/27 08:32:51;;;;;;;;;;;3.10;92.10;;;;;;5032167;28;19970;-76
2022/12/27 08:35:17;;;;;;;;;;;3.20;92.10;;;;;;5032767;28;20548;-76
2022/12/27 08:37:42;;;;;;;;;;;3.20;92.10;;;;;;5033675;28;20015;-74
2022/12/27 08:40:08;;;;;;;;;;;3.20;92.10;;;;;;5035109;28;19921;-76
2022/12/27 08:42:33;;;;;;;;;;;3.30;92.10;;;;;;5031527;28;20359;-74
2022/12/27 08:44:59;;;;;;;;;;;3.40;92.10;;;;;;5038524;28;19925;-76
2022/12/27 08:47:24;;;;;;;;;;;3.50;92.10;;;;;;5039929;28;19917;-77
2022/12/27 08:49:50;;;;;;;;;;;3.50;92.10;;;;;;5037379;28;19924;-77
2022/12/27 08:52:15;;;;;;;;;;;3.60;92.00;;;;;;5038339;28;19921;-77
2022/12/27 08:54:40;;;;;;;;;;;3.60;92.00;;;;;;5038833;28;20872;-77
2022/12/27 08:57:06;;;;;;;;;;;3.70;92.00;;;;;;5038574;28;19924;-76
2022/12/27 08:59:31;;;;;;;;;;;3.80;92.00;;;;;;5035472;28;20010;-76
2022/12/27 09:01:57;;;;;;;;;;;3.80;92.00;;;;;;5037080;28;19920;-76
2022/12/27 09:04:22;;;;;;;;;;;3.90;92.00;;;;;;5040222;28;20554;-76
2022/12/27 09:06:48;;;;;;;;;;;3.90;92.00;;;;;;5037230;28;19978;-76
2022/12/27 09:09:13;;;;;;;;;;;4.00;92.00;;;;;;5040658;28;19963;-77
2022/12/27 09:11:39;;;;;;;;;;;4.10;92.00;;;;;;5039668;28;20085;-76
2022/12/27 09:14:04;;;;;;;;;;;4.20;92.00;;;;;;5039551;28;19920;-76
2022/12/27 09:16:29;;;;;;;;;;;4.30;92.00;;;;;;5038539;28;20011;-74
2022/12/27 09:18:56;;;;;;;;;;;4.30;92.00;;;;;;5038824;28;20455;-76
2022/12/27 09:21:22;;;;;;;;;;;4.40;91.90;;;;;;5037748;28;20405;-77
2022/12/27 09:23:47;;;;;;;;;;;4.50;91.90;;;;;;5036946;28;19991;-77
2022/12/27 09:26:14;;;;;;;;;;;4.60;91.90;;;;;;5041338;28;20261;-76
2022/12/27 09:28:40;;;;;;;;;;;4.70;91.90;;;;;;5054391;28;20353;-76
2022/12/27 09:31:06;;;;;;;;;;;4.80;91.90;;;;;;5038752;28;19921;-77
2022/12/27 09:33:32;;;;;;;;;;;4.80;91.80;;;;;;5037691;28;19921;-76
2022/12/27 09:36:01;;;;;;;;;;;4.90;91.80;;;;;;5032686;28;19985;-76
2022/12/27 09:38:26;;;;;;;;;;;5.00;91.80;;;;;;5052917;28;19923;-76
2022/12/27 09:40:52;;;;;;;;;;;5.10;91.80;;;;;;5034780;28;20307;-76
2022/12/27 09:43:17;;;;;;;;;;;5.20;91.80;;;;;;5038911;28;19979;-77
2022/12/27 09:45:43;;;;;;;;;;;5.30;91.80;;;;;;5037471;28;19928;-76
2022/12/27 09:48:13;;;;;;;;;;;5.40;91.80;;;;;;5035954;28;19917;-75
2022/12/27 09:50:59;;;;;;;;;;;5.50;91.80;;;;;;5020559;28;19920;-76
2022/12/27 09:53:38;;;;;;;;;;;5.60;91.80;;;;;;5042242;28;19920;-76
2022/12/27 09:56:04;;;;;;;;;;;5.80;91.80;;;;;;5034674;28;20374;-76
2022/12/27 09:58:34;;;;;;;;;;;5.90;91.80;;;;;;5017962;28;19975;-69
2022/12/27 10:00:59;;;;;;;;;;;6.00;91.80;;;;;;5035865;28;19921;-72
2022/12/27 10:03:25;;;;;;;;;;;6.00;91.70;;;;;;5045342;28;19921;-73
2022/12/27 10:05:53;;;;;;;;;;;6.20;91.60;;;;;;5035378;28;20032;-72
2022/12/27 10:08:21;;;;;;;;;;;6.30;91.60;;;;;;5015868;28;19975;-71
2022/12/27 10:10:53;;;;;;;;;;;6.40;91.60;;;;;;5034133;28;20672;-72
2022/12/27 10:13:45;;;;;;;;;;;6.50;91.60;;;;;;5037593;28;19920;-72
2022/12/27 10:16:16;;;;;;;;;;;6.60;91.60;;;;;;5023503;28;19937;-69
2022/12/27 10:18:42;;;;;;;;;;;6.80;91.60;;;;;;5033353;28;19947;-73
2022/12/27 10:21:23;;;;;;;;;;;6.90;91.50;;;;;;5036249;28;19921;-73
2022/12/27 10:24:15;;;;;;;;;;;7.00;91.40;;;;;;5034277;28;19921;-72
2022/12/27 10:26:40;;;;;;;;;;;7.10;91.40;;;;;;5033145;28;20008;-70
2022/12/27 10:29:13;;;;;;;;;;;7.20;91.40;;;;;;5036550;28;20040;-76
2022/12/27 10:31:39;;;;;;;;;;;7.30;91.40;;;;;;5019133;28;19982;-77
2022/12/27 10:34:04;;;;;;;;;;;7.40;91.30;;;;;;5022312;28;20485;-76
2022/12/27 10:36:30;;;;;;;;;;;7.50;91.30;;;;;;5035583;28;19936;-74
2022/12/27 10:38:55;;;;;;;;;;;7.70;91.30;;;;;;5037637;28;20615;-77
2022/12/27 10:41:27;;;;;;;;;;;7.80;91.30;;;;;;5053183;28;19928;-76
2022/12/27 10:43:52;;;;;;;;;;;7.90;91.20;;;;;;5037764;28;19974;-76
2022/12/27 10:46:19;;;;;;;;;;;8.00;91.20;;;;;;5051970;28;20681;-77
2022/12/27 10:48:55;;;;;;;;;;;8.20;91.20;;;;;;5038161;28;19921;-75
2022/12/27 10:51:22;;;;;;;;;;;8.30;91.20;;;;;;5038056;28;20691;-76
2022/12/27 10:53:47;;;;;;;;;;;8.40;91.10;;;;;;5055183;28;19916;-77
2022/12/27 10:56:14;;;;;;;;;;;8.60;91.10;;;;;;5038515;28;19975;-77
2022/12/27 10:58:43;;;;;;;;;;;8.70;91.00;;;;;;5034284;28;19995;-77
2022/12/27 11:01:13;;;;;;;;;;;8.70;90.90;;;;;;5037281;28;20574;-76
2022/12/27 11:03:38;;;;;;;;;;;8.80;90.80;;;;;;5036721;28;19921;-76
2022/12/27 11:06:05;;;;;;;;;;;8.90;90.80;;;;;;5039115;28;20994;-77
2022/12/27 11:08:30;;;;;;;;;;;9.10;90.90;;;;;;5020806;28;20019;-76
2022/12/27 11:11:11;;;;;;;;;;;9.20;90.80;;;;;;5020418;28;20359;-76
2022/12/27 11:13:37;;;;;;;;;;;9.30;90.60;;;;;;5051911;28;19995;-75
2022/12/27 11:16:02;;;;;;;;;;;9.30;90.50;;;;;;5038428;28;20066;-75
2022/12/27 11:18:28;;;;;;;;;;;9.40;90.50;;;;;;5050565;28;20342;-76
2022/12/27 11:20:54;;;;;;;;;;;9.40;90.40;;;;;;5021069;28;19924;-74
2022/12/27 11:23:30;;;;;;;;;;;9.50;90.40;;;;;;5036733;28;19925;-75
2022/12/27 11:26:00;;;;;;;;;;;9.50;90.40;;;;;;5034728;28;19925;-76
2022/12/27 11:28:41;;;;;;;;;;;9.60;90.50;;;;;;5030416;28;19925;-76
2022/12/27 11:31:07;;;;;;;;;;;9.70;90.40;;;;;;5034839;28;19932;-76
2022/12/27 11:33:38;;;;;;;;;;;9.80;90.40;;;;;;5053335;28;19925;-76
2022/12/27 11:36:04;;;;;;;;;;;10.00;90.40;;;;;;5038369;28;19929;-74
2022/12/27 11:38:30;;;;;;;;;;;10.10;90.30;;;;;;5033459;28;19927;-74
2022/12/27 11:40:57;;;;;;;;;;;10.20;90.30;;;;;;5023863;28;19932;-75
2022/12/27 11:43:26;;;;;;;;;;;10.30;90.20;;;;;;5036892;28;19928;-76
2022/12/27 11:45:51;;;;;;;;;;;10.30;90.20;;;;;;5036641;28;19959;-76
2022/12/27 11:48:23;;;;;;;;;;;10.40;90.10;;;;;;5053155;28;19921;-76
2022/12/27 11:50:56;;;;;;;;;;;10.50;90.10;;;;;;5034331;28;19928;-75
2022/12/27 11:53:33;;;;;;;;;;;10.50;89.90;;;;;;5036191;28;19925;-76
2022/12/27 11:55:59;;;;;;;;;;;10.50;90.00;;;;;;5036122;28;20326;-76
2022/12/27 11:58:39;;;;;;;;;;;10.60;90.00;;;;;;5036796;28;19921;-76
2022/12/27 12:01:26;;;;;;;;;;;10.70;90.00;;;;;;5037962;28;19920;-76
2022/12/27 12:03:54;;;;;;;;;;;10.80;90.00;;;;;;5034597;28;19936;-76
2022/12/27 12:06:23;;;;;;;;;;;10.90;89.80;;;;;;5037321;28;20618;-76
2022/12/27 12:08:54;;;;;;;;;;;11.00;89.70;;;;;;5037212;28;19935;-76
2022/12/27 12:11:23;;;;;;;;;;;11.00;89.60;;;;;;5037045;28;19921;-75
2022/12/27 12:13:51;;;;;;;;;;;11.10;90.10;;;;;;5034340;28;19927;-76
2022/12/27 12:16:22;;;;;;;;;;;11.10;89.50;;;;;;5037807;28;19924;-76
2022/12/27 12:18:48;;;;;;;;;;;11.10;89.30;;;;;;5031548;28;19921;-76
2022/12/27 12:21:42;;;;;;;;;;;11.10;89.10;;;;;;5035480;28;20231;-76
2022/12/27 12:24:16;;;;;;;;;;;11.10;89.20;;;;;;5003421;28;19968;-76
2022/12/27 12:27:01;;;;;;;;;;;11.10;89.20;;;;;;5028154;28;19967;-76
2022/12/27 12:29:45;;;;;;;;;;;11.10;89.20;;;;;;5034721;28;19971;-76
2022/12/27 12:32:23;;;;;;;;;;;11.10;89.30;;;;;;5023972;28;19929;-75
2022/12/27 12:35:07;;;;;;;;;;;11.10;89.10;;;;;;5035999;28;19966;-76
2022/12/27 12:37:35;;;;;;;;;;;11.10;89.20;;;;;;5050086;28;19928;-76
2022/12/27 12:40:14;;;;;;;;;;;11.20;89.10;;;;;;5051710;28;20070;-76
2022/12/27 12:42:42;;;;;;;;;;;11.10;88.90;;;;;;5040682;28;19921;-75
2022/12/27 12:45:16;;;;;;;;;;;11.10;89.10;;;;;;5036653;28;19921;-76
2022/12/27 12:47:48;;;;;;;;;;;11.00;88.90;;;;;;5035847;28;19920;-76
2022/12/27 12:50:20;;;;;;;;;;;11.00;89.00;;;;;;5037370;28;19921;-76
2022/12/27 12:52:52;;;;;;;;;;;11.00;89.10;;;;;;5035749;28;19925;-76
2022/12/27 12:55:36;;;;;;;;;;;11.10;89.30;;;;;;5016411;28;19928;-76
2022/12/27 12:58:08;;;;;;;;;;;11.20;89.20;;;;;;5048967;28;19931;-73
2022/12/27 13:00:41;;;;;;;;;;;11.10;89.00;;;;;;5041880;28;19936;-75
2022/12/27 13:03:09;;;;;;;;;;;11.20;89.20;;;;;;5036609;28;19920;-76
2022/12/27 13:05:53;;;;;;;;;;;11.20;89.20;;;;;;5049054;28;19924;-76
2022/12/27 13:08:37;;;;;;;;;;;11.30;89.10;;;;;;5034420;28;19983;-76
2022/12/27 13:11:14;;;;;;;;;;;11.40;89.30;;;;;;5035190;28;19925;-76
2022/12/27 13:13:58;;;;;;;;;;;11.60;89.20;;;;;;5045864;28;19920;-74
2022/12/27 13:16:28;;;;;;;;;;;11.70;89.10;;;;;;5037685;28;19928;-76
2022/12/27 13:19:12;;;;;;;;;;;11.80;89.10;;;;;;5035054;28;19920;-76
2022/12/27 13:21:52;;;;;;;;;;;11.90;88.70;;;;;;5035675;28;20291;-76
2022/12/27 13:24:33;;;;;;;;;;;12.00;88.70;;;;;;5049405;28;19921;-76
2022/12/27 13:27:01;;;;;;;;;;;12.10;88.60;;;;;;5035624;28;19912;-76
2022/12/27 13:29:26;;;;;;;;;;;12.10;88.40;;;;;;5036550;28;20589;-76
2022/12/27 13:31:58;;;;;;;;;;;12.20;88.50;;;;;;5053062;28;19921;-76
2022/12/27 13:34:32;;;;;;;;;;;12.20;88.40;;;;;;5039942;28;20629;-76
2022/12/27 13:36:58;;;;;;;;;;;12.30;88.40;;;;;;5040206;28;19935;-76
2022/12/27 13:39:26;;;;;;;;;;;12.40;88.40;;;;;;5036409;28;19924;-76
2022/12/27 13:42:00;;;;;;;;;;;12.50;88.00;;;;;;5052469;28;19921;-77
2022/12/27 13:44:30;;;;;;;;;;;12.40;87.70;;;;;;5055592;28;19982;-76
2022/12/27 13:46:59;;;;;;;;;;;12.40;87.70;;;;;;5036205;28;20341;-76
2022/12/27 13:49:47;;;;;;;;;;;12.30;87.80;;;;;;5038122;28;20481;-76
2022/12/27 13:52:19;;;;;;;;;;;12.30;87.70;;;;;;5032743;28;20272;-76
2022/12/27 13:54:44;;;;;;;;;;;12.20;87.50;;;;;;5035836;28;20502;-76
2022/12/27 13:57:10;;;;;;;;;;;12.10;87.60;;;;;;5040900;28;19925;-76
2022/12/27 13:59:54;;;;;;;;;;;12.00;87.60;;;;;;5036237;28;20046;-76
2022/12/27 14:02:22;;;;;;;;;;;11.90;87.60;;;;;;5039925;28;19923;-76
2022/12/27 14:05:00;;;;;;;;;;;11.80;87.70;;;;;;5038149;28;19917;-76
2022/12/27 14:07:44;;;;;;;;;;;11.70;87.70;;;;;;5038698;28;20483;-76
2022/12/27 14:10:10;;;;;;;;;;;11.60;87.80;;;;;;5028886;28;20638;-75
2022/12/27 14:12:54;;;;;;;;;;;11.60;88.00;;;;;;5036386;28;19927;-75
2022/12/27 14:15:21;;;;;;;;;;;11.50;87.90;;;;;;5039814;28;19984;-76
2022/12/27 14:17:46;;;;;;;;;;;11.50;87.90;;;;;;5054546;28;19921;-76
2022/12/27 14:20:31;;;;;;;;;;;11.40;87.90;;;;;;5052412;28;20521;-76
2022/12/27 14:23:12;;;;;;;;;;;11.30;88.00;;;;;;5035543;28;19932;-76
2022/12/27 14:25:37;;;;;;;;;;;11.20;88.10;;;;;;5039479;28;19927;-77
2022/12/27 14:28:11;;;;;;;;;;;11.20;88.10;;;;;;5031920;28;19944;-75
2022/12/27 14:30:45;;;;;;;;;;;11.20;88.20;;;;;;5038749;28;19927;-74
2022/12/27 14:33:10;;;;;;;;;;;11.10;88.20;;;;;;5020748;28;20512;-75
2022/12/27 14:35:40;;;;;;;;;;;11.10;88.20;;;;;;5038947;28;19960;-76
2022/12/27 14:38:26;;;;;;;;;;;11.10;88.20;;;;;;5027553;28;20837;-76
2022/12/27 14:40:59;;;;;;;;;;;11.00;88.20;;;;;;5047188;28;20493;-76
2022/12/27 14:43:43;;;;;;;;;;;10.90;88.20;;;;;;5051404;28;20007;-76
2022/12/27 14:46:11;;;;;;;;;;;10.90;88.30;;;;;;5038136;28;19921;-75
2022/12/27 14:48:45;;;;;;;;;;;10.90;88.40;;;;;;5037551;28;20008;-76
2022/12/27 14:51:28;;;;;;;;;;;10.90;88.40;;;;;;5026031;28;19931;-75
2022/12/27 14:53:54;;;;;;;;;;;10.80;88.50;;;;;;5035227;28;20303;-76
2022/12/27 14:56:25;;;;;;;;;;;10.80;88.30;;;;;;5037469;28;20399;-76
2022/12/27 14:58:56;;;;;;;;;;;10.80;88.40;;;;;;5036684;28;19925;-76
2022/12/27 15:01:31;;;;;;;;;;;10.70;88.30;;;;;;5035400;28;19921;-76
2022/12/27 15:04:06;;;;;;;;;;;10.60;88.20;;;;;;5038582;28;19925;-75
2022/12/27 15:06:34;;;;;;;;;;;10.50;88.20;;;;;;5037787;28;19947;-74
2022/12/27 15:09:02;;;;;;;;;;;10.40;88.10;;;;;;5036486;28;19920;-76
2022/12/27 15:11:33;;;;;;;;;;;10.20;88.20;;;;;;5038594;28;19921;-76
2022/12/27 15:14:06;;;;;;;;;;;10.10;88.30;;;;;;5033733;28;19920;-75
2022/12/27 15:16:34;;;;;;;;;;;10.10;88.40;;;;;;5034406;28;19925;-74
2022/12/27 15:19:10;;;;;;;;;;;10.00;88.50;;;;;;5037341;28;19935;-76
2022/12/27 15:21:53;;;;;;;;;;;9.90;88.50;;;;;;5053277;28;19924;-75
2022/12/27 15:24:18;;;;;;;;;;;9.80;88.40;;;;;;5052952;28;20002;-75
2022/12/27 15:26:50;;;;;;;;;;;9.80;88.50;;;;;;5037256;28;19924;-75
2022/12/27 15:29:25;;;;;;;;;;;9.70;88.50;;;;;;5050976;28;19932;-76
2022/12/27 15:32:00;;;;;;;;;;;9.60;88.60;;;;;;5036704;28;19932;-75
2022/12/27 15:34:34;;;;;;;;;;;9.50;88.60;;;;;;5052082;28;20384;-75
2022/12/27 15:37:00;;;;;;;;;;;9.40;88.50;;;;;;5048933;28;19935;-76
2022/12/27 15:39:30;;;;;;;;;;;9.30;88.50;;;;;;5051302;28;19920;-76
2022/12/27 15:42:14;;;;;;;;;;;9.20;88.50;;;;;;5036472;28;19932;-76
2022/12/27 15:44:58;;;;;;;;;;;9.10;88.50;;;;;;5032127;28;20007;-76
2022/12/27 15:47:36;;;;;;;;;;;8.90;88.50;;;;;;5036219;28;20014;-75
2022/12/27 15:50:20;;;;;;;;;;;8.80;88.50;;;;;;5034005;28;20419;-75
2022/12/27 15:53:04;;;;;;;;;;;8.60;88.60;;;;;;5036471;28;19921;-75
2022/12/27 15:55:48;;;;;;;;;;;8.50;88.50;;;;;;5037419;28;19932;-73
2022/12/27 15:58:23;;;;;;;;;;;8.30;88.70;;;;;;5035439;28;21519;-76
2022/12/27 16:01:07;;;;;;;;;;;8.20;88.80;;;;;;5019684;28;20451;-76
2022/12/27 16:03:36;;;;;;;;;;;8.10;89.70;;;;;;5035332;28;20345;-75
2022/12/27 16:06:02;;;;;;;;;;;8.00;89.00;;;;;;5035579;28;19928;-75
2022/12/27 16:08:32;;;;;;;;;;;7.80;89.00;;;;;;5048673;28;19924;-75
2022/12/27 16:10:57;;;;;;;;;;;7.80;89.20;;;;;;5050190;28;19921;-75
2022/12/27 16:13:30;;;;;;;;;;;7.70;89.10;;;;;;5033504;28;19920;-75
2022/12/27 16:15:56;;;;;;;;;;;7.50;89.20;;;;;;5034742;28;19929;-75
2022/12/27 16:18:21;;;;;;;;;;;7.40;89.30;;;;;;5052207;28;19928;-75